Time;durP1;ratioP1;P1;durP2;ratioP2;P2;SDS_P1;SDS_P2;PMS_P1;PMS_P2;Temp;Humidity;BMP_temperature;BMP_pressure;BME280_temperature;BME280_humidity;BME280_pressure;Samples;Min_cycle;Max_cycle;Signal;HPM_P1;HPM_P2
2022/04/24 00:01:06;;;;;;;67.45;43.90;;;;;;;13.86;60.02;93450.78;4990371;28;20482;-63
2022/04/24 00:03:32;;;;;;;62.53;42.72;;;;;;;13.78;59.73;93439.28;4990231;28;20044;-63
2022/04/24 00:05:58;;;;;;;67.95;43.22;;;;;;;13.98;59.26;93427.28;4990596;28;20392;-63
2022/04/24 00:08:23;;;;;;;68.20;43.60;;;;;;;13.72;60.18;93424.69;4990770;28;20029;-63
2022/04/24 00:10:48;;;;;;;67.30;42.92;;;;;;;14.00;59.48;93416.97;4990169;28;20035;-63
2022/04/24 00:13:14;;;;;;;70.82;45.10;;;;;;;14.03;59.49;93413.56;4990225;28;20097;-63
2022/04/24 00:15:39;;;;;;;72.18;44.78;;;;;;;13.82;59.39;93381.28;4990636;28;20444;-63
2022/04/24 00:18:05;;;;;;;71.03;44.92;;;;;;;13.82;59.76;93389.31;5005643;28;20057;-63
2022/04/24 00:20:31;;;;;;;67.88;43.67;;;;;;;13.88;59.83;93411.88;5005415;28;20121;-63
2022/04/24 00:22:56;;;;;;;76.00;45.05;;;;;;;13.70;60.08;93390.31;4990574;28;20076;-63
2022/04/24 00:25:21;;;;;;;77.45;47.13;;;;;;;13.94;59.58;93399.72;4989072;28;20046;-63
2022/04/24 00:27:47;;;;;;;76.75;46.90;;;;;;;13.85;59.73;93391.22;4989186;28;20530;-63
2022/04/24 00:30:13;;;;;;;74.30;45.95;;;;;;;14.11;58.82;93389.56;4989999;28;20038;-62
2022/04/24 00:32:38;;;;;;;67.47;43.05;;;;;;;13.72;60.01;93395.31;4990349;28;20038;-63
2022/04/24 00:35:04;;;;;;;66.22;43.30;;;;;;;13.84;59.75;93392.38;4989251;28;20030;-63
2022/04/24 00:37:30;;;;;;;64.95;42.80;;;;;;;14.01;59.35;93383.75;4990012;28;20510;-63
2022/04/24 00:39:55;;;;;;;64.57;43.05;;;;;;;14.22;58.81;93385.06;4993000;28;20031;-63
2022/04/24 00:42:21;;;;;;;63.70;42.15;;;;;;;14.24;58.87;93375.56;4993148;28;20213;-63
2022/04/24 00:44:46;;;;;;;62.30;41.40;;;;;;;14.08;58.72;93379.63;4994273;28;20034;-63
2022/04/24 00:47:21;;;;;;;68.25;44.53;;;;;;;14.37;58.66;93370.69;5009486;28;20026;-63
2022/04/24 00:49:47;;;;;;;62.92;43.22;;;;;;;14.52;58.33;93371.59;4994239;28;20030;-63
2022/04/24 00:52:13;;;;;;;60.65;41.40;;;;;;;14.46;57.90;93362.34;4993679;28;20049;-63
2022/04/24 00:54:39;;;;;;;57.65;39.50;;;;;;;14.61;57.69;93360.56;4992706;28;20062;-63
2022/04/24 00:57:09;;;;;;;60.47;40.92;;;;;;;14.17;58.17;93361.34;4994128;28;20024;-63
2022/04/24 00:59:35;;;;;;;59.55;40.42;;;;;;;14.48;57.83;93357.41;4993845;28;20022;-63
2022/04/24 01:02:05;;;;;;;59.35;41.22;;;;;;;14.66;57.40;93357.56;5008567;28;20219;-62
2022/04/24 01:04:33;;;;;;;69.97;44.97;;;;;;;14.53;57.11;93333.75;5008975;28;20122;-63
2022/04/24 01:06:59;;;;;;;59.63;41.30;;;;;;;14.51;57.34;93317.31;4994062;28;20065;-62
2022/04/24 01:09:26;;;;;;;62.47;43.35;;;;;;;14.46;57.43;93336.38;4993859;28;20106;-63
2022/04/24 01:11:53;;;;;;;63.95;42.72;;;;;;;14.04;58.15;93294.03;4993320;28;20121;-62
2022/04/24 01:14:20;;;;;;;61.08;40.80;;;;;;;14.63;57.21;93352.94;5009096;28;20034;-63
2022/04/24 01:16:47;;;;;;;61.70;40.28;;;;;;;14.71;56.97;93346.50;4993769;28;20022;-63
2022/04/24 01:19:13;;;;;;;55.08;39.15;;;;;;;14.85;56.79;93346.59;4993605;28;20034;-62
2022/04/24 01:21:41;;;;;;;64.45;42.63;;;;;;;14.77;56.54;93320.91;4993169;28;20410;-62
2022/04/24 01:24:08;;;;;;;56.75;38.03;;;;;;;14.67;56.45;93278.81;4993613;28;20125;-63
2022/04/24 01:26:34;;;;;;;61.05;40.80;;;;;;;15.00;55.69;93318.75;4993527;28;20048;-62
2022/04/24 01:29:00;;;;;;;56.85;39.67;;;;;;;14.79;56.19;93321.28;4993665;28;20031;-63
2022/04/24 01:31:26;;;;;;;59.35;41.03;;;;;;;15.05;55.79;93318.38;4993067;28;20475;-64
2022/04/24 01:33:51;;;;;;;55.95;39.42;;;;;;;15.02;55.33;93308.41;4993235;28;20038;-63
2022/04/24 01:36:16;;;;;;;54.70;39.80;;;;;;;15.25;55.56;93339.50;4993772;28;20054;-62
2022/04/24 01:38:42;;;;;;;51.22;37.38;;;;;;;15.38;55.66;93340.69;4992206;28;20073;-63
2022/04/24 01:41:08;;;;;;;58.00;40.00;;;;;;;15.03;55.29;93333.28;4992898;28;20027;-63
2022/04/24 01:43:36;;;;;;;60.83;41.75;;;;;;;15.28;55.32;93336.84;4993204;28;20038;-63
2022/04/24 01:46:03;;;;;;;50.75;37.88;;;;;;;15.40;55.07;93330.34;4992945;28;20399;-63
2022/04/24 01:48:29;;;;;;;55.60;38.78;;;;;;;15.40;54.71;93324.22;4993383;28;20029;-63
2022/04/24 01:50:55;;;;;;;54.55;37.78;;;;;;;15.34;54.45;93313.13;5007736;28;20109;-63
2022/04/24 01:53:20;;;;;;;52.42;37.75;;;;;;;15.36;54.60;93324.25;4993328;28;20533;-62
2022/04/24 01:55:46;;;;;;;53.85;39.40;;;;;;;15.40;54.43;93319.66;4993090;28;20471;-63
2022/04/24 01:58:11;;;;;;;57.85;38.72;;;;;;;15.37;54.40;93311.63;4992482;28;20053;-62
2022/04/24 02:00:36;;;;;;;55.53;39.50;;;;;;;15.57;54.42;93335.03;4992520;28;20072;-63
2022/04/24 02:03:02;;;;;;;53.50;38.55;;;;;;;15.54;54.10;93319.69;5007977;28;20076;-63
2022/04/24 02:05:27;;;;;;;55.00;37.90;;;;;;;15.56;54.01;93311.28;5007855;28;20494;-62
2022/04/24 02:07:53;;;;;;;60.85;38.90;;;;;;;15.58;53.62;93311.66;4992768;28;20026;-61
2022/04/24 02:10:18;;;;;;;60.03;40.22;;;;;;;15.48;53.55;93302.44;5007283;28;20026;-61
2022/04/24 02:12:44;;;;;;;59.58;40.97;;;;;;;15.31;54.37;93317.34;4992723;28;20034;-61
2022/04/24 02:15:10;;;;;;;56.80;39.40;;;;;;;15.50;53.76;93323.50;4992895;28;20022;-62
2022/04/24 02:17:36;;;;;;;62.55;43.10;;;;;;;15.14;54.28;93311.91;4992460;28;20034;-61
2022/04/24 02:20:03;;;;;;;61.60;43.00;;;;;;;15.07;54.80;93308.06;4991431;28;20033;-61
2022/04/24 02:22:34;;;;;;;62.33;43.95;;;;;;;14.83;55.02;93304.13;5006292;28;20081;-61
2022/04/24 02:25:01;;;;;;;63.50;42.85;;;;;;;14.38;56.56;93316.03;4992685;28;20058;-61
2022/04/24 02:27:26;;;;;;;63.15;42.47;;;;;;;14.22;57.14;93323.56;4992691;28;20031;-61
2022/04/24 02:29:52;;;;;;;59.55;41.38;;;;;;;14.15;57.02;93318.19;4992215;28;20088;-61
2022/04/24 02:32:17;;;;;;;67.03;44.20;;;;;;;14.50;56.45;93307.00;4991913;28;20037;-62
2022/04/24 02:34:42;;;;;;;65.25;43.78;;;;;;;14.50;56.83;93321.13;4991113;28;20162;-61
2022/04/24 02:37:08;;;;;;;64.10;43.55;;;;;;;14.53;56.62;93336.44;4992244;28;20109;-61
2022/04/24 02:39:33;;;;;;;66.70;44.33;;;;;;;14.21;56.58;93306.75;4992255;28;20541;-62
2022/04/24 02:41:58;;;;;;;63.75;42.00;;;;;;;14.29;56.72;93320.97;4991948;28;20610;-61
2022/04/24 02:44:24;;;;;;;66.93;44.33;;;;;;;14.37;56.92;93314.50;5006842;28;20057;-62
2022/04/24 02:46:49;;;;;;;66.55;45.03;;;;;;;14.56;56.39;93329.59;5007078;28;20034;-61
2022/04/24 02:49:15;;;;;;;63.13;42.85;;;;;;;14.49;56.30;93329.53;4990962;28;20493;-61
2022/04/24 02:51:40;;;;;;;67.38;44.40;;;;;;;14.24;56.95;93323.97;4991866;28;20450;-61
2022/04/24 02:54:05;;;;;;;67.22;44.90;;;;;;;13.90;57.51;93292.00;4990726;28;20029;-63
2022/04/24 02:56:31;;;;;;;63.47;43.40;;;;;;;14.32;57.49;93330.91;4991600;28;20403;-61
2022/04/24 02:58:56;;;;;;;67.05;45.38;;;;;;;13.94;57.70;93298.16;4991817;28;20049;-61
2022/04/24 03:01:22;;;;;;;77.85;47.75;;;;;;;13.95;57.96;93310.38;4991119;28;20027;-63
2022/04/24 03:03:49;;;;;;;70.07;47.30;;;;;;;13.87;58.49;93318.69;5006655;28;20035;-63
2022/04/24 03:06:17;;;;;;;66.82;44.65;;;;;;;14.18;57.71;93328.91;5006235;28;20483;-63
2022/04/24 03:08:43;;;;;;;71.45;44.75;;;;;;;14.27;57.11;93333.94;5002554;28;20634;-63
2022/04/24 03:11:08;;;;;;;71.90;47.22;;;;;;;14.16;57.27;93327.72;4989860;28;20120;-62
2022/04/24 03:13:33;;;;;;;74.82;47.30;;;;;;;14.03;57.83;93346.75;4991624;28;20031;-63
2022/04/24 03:15:59;;;;;;;65.75;43.30;;;;;;;14.27;57.51;93355.31;4991360;28;20391;-62
2022/04/24 03:18:24;;;;;;;70.70;46.30;;;;;;;14.01;58.01;93357.00;4986717;28;20142;-62
2022/04/24 03:20:50;;;;;;;68.70;43.90;;;;;;;13.89;58.26;93381.34;4971771;28;20019;-63
2022/04/24 03:23:15;;;;;;;68.30;43.80;;;;;;;12.02;64.15;93423.75;4970342;28;20480;-63
2022/04/24 03:25:41;;;;;;;56.35;35.28;;;;;;;10.80;70.30;93493.16;4976210;28;20030;-61
2022/04/24 03:28:08;;;;;;;66.30;38.42;;;;;;;10.59;71.98;93505.91;4991294;28;20026;-61
2022/04/24 03:30:35;;;;;;;60.67;35.45;;;;;;;10.39;72.97;93481.16;4989456;28;20033;-60
2022/04/24 03:33:00;;;;;;;69.60;44.28;;;;;;;11.42;70.04;93461.41;4991374;28;20057;-60
2022/04/24 03:35:26;;;;;;;68.43;43.40;;;;;;;11.03;70.83;93455.25;4991023;28;20018;-61
2022/04/24 03:37:51;;;;;;;65.82;42.05;;;;;;;11.06;71.46;93470.53;4991161;28;20030;-60
2022/04/24 03:40:17;;;;;;;76.13;47.10;;;;;;;11.11;70.78;93439.09;4990775;28;20407;-60
2022/04/24 03:42:42;;;;;;;69.88;43.40;;;;;;;11.17;70.41;93444.94;5005909;28;20023;-61
2022/04/24 03:45:11;;;;;;;77.00;48.85;;;;;;;11.84;68.80;93450.06;4989458;28;20037;-61
2022/04/24 03:47:37;;;;;;;78.88;48.95;;;;;;;11.82;68.55;93468.28;5006115;28;20022;-60
2022/04/24 03:50:03;;;;;;;74.75;47.28;;;;;;;12.71;65.82;93451.16;4990796;28;20031;-61
2022/04/24 03:52:29;;;;;;;75.65;48.10;;;;;;;12.54;64.90;93435.66;4990793;28;20023;-61
2022/04/24 03:54:55;;;;;;;75.20;46.25;;;;;;;12.62;64.64;93434.63;4990576;28;20061;-61
2022/04/24 03:57:20;;;;;;;74.03;46.53;;;;;;;13.39;62.79;93442.22;4990828;28;20101;-63
2022/04/24 03:59:45;;;;;;;76.32;47.50;;;;;;;13.40;61.64;93448.34;4990856;28;20084;-61
2022/04/24 04:02:11;;;;;;;70.72;45.78;;;;;;;12.09;65.44;93418.56;5005622;28;20029;-61
2022/04/24 04:04:37;;;;;;;75.97;47.85;;;;;;;12.82;64.85;93428.09;4990488;28;20030;-60
2022/04/24 04:07:03;;;;;;;71.00;46.35;;;;;;;12.19;66.78;93445.38;4990857;28;20041;-61
2022/04/24 04:09:29;;;;;;;80.28;48.25;;;;;;;11.48;67.64;93382.03;5005567;28;20483;-60
2022/04/24 04:11:55;;;;;;;71.45;43.22;;;;;;;11.32;69.61;93438.78;4988805;28;20141;-61
2022/04/24 04:14:21;;;;;;;73.72;46.22;;;;;;;12.49;65.83;93439.41;4989872;28;20038;-61
2022/04/24 04:16:48;;;;;;;72.43;46.55;;;;;;;12.90;64.29;93445.75;4990590;28;20018;-61
2022/04/24 04:19:13;;;;;;;71.05;46.95;;;;;;;13.18;63.21;93433.91;4990835;28;20348;-60
2022/04/24 04:21:39;;;;;;;76.20;48.05;;;;;;;13.44;62.29;93449.94;4990365;28;20034;-60
2022/04/24 04:24:05;;;;;;;76.38;46.72;;;;;;;13.13;62.83;93436.91;4989021;28;20026;-61
2022/04/24 04:26:30;;;;;;;73.88;46.47;;;;;;;13.31;62.50;93455.84;4990649;28;20040;-60
2022/04/24 04:28:56;;;;;;;70.30;43.53;;;;;;;13.86;61.51;93464.91;4990603;28;20133;-61
2022/04/24 04:31:21;;;;;;;65.80;43.83;;;;;;;13.83;60.81;93454.97;4990087;28;20023;-61
2022/04/24 04:33:46;;;;;;;68.38;43.85;;;;;;;13.68;60.33;93403.28;5004538;23;20391;-61
2022/04/24 04:36:12;;;;;;;64.45;43.58;;;;;;;14.20;59.49;93444.28;4989192;28;20022;-61
2022/04/24 04:38:37;;;;;;;59.05;39.97;;;;;;;14.05;59.31;93480.03;4990399;28;20034;-62
2022/04/24 04:41:04;;;;;;;55.92;39.00;;;;;;;14.02;59.24;93462.84;4988284;28;20019;-60
2022/04/24 04:43:30;;;;;;;56.15;38.80;;;;;;;14.61;58.48;93497.03;4988887;28;20487;-62
2022/04/24 04:45:55;;;;;;;50.72;36.55;;;;;;;14.80;57.76;93494.91;4990240;28;20685;-61
2022/04/24 04:48:21;;;;;;;49.65;36.22;;;;;;;14.91;57.66;93491.56;4989257;28;20026;-61
2022/04/24 04:50:46;;;;;;;46.15;34.30;;;;;;;14.59;56.83;93518.03;4989716;28;20421;-61
2022/04/24 04:53:12;;;;;;;50.38;36.00;;;;;;;14.96;56.57;93499.25;4990450;28;20027;-61
2022/04/24 04:55:37;;;;;;;47.53;34.58;;;;;;;15.06;55.90;93483.25;4990177;28;20110;-60
2022/04/24 04:58:03;;;;;;;44.08;33.85;;;;;;;15.45;55.60;93530.19;4989140;28;20025;-62
2022/04/24 05:00:28;;;;;;;42.42;32.22;;;;;;;15.38;55.12;93530.16;4988602;28;20391;-62
2022/04/24 05:02:53;;;;;;;44.83;32.67;;;;;;;15.49;54.32;93537.09;4990091;28;20026;-62
2022/04/24 05:05:19;;;;;;;42.58;32.53;;;;;;;15.62;54.30;93547.53;4990171;28;20030;-60
2022/04/24 05:07:45;;;;;;;42.72;32.15;;;;;;;15.69;54.09;93544.91;4990160;28;20030;-62
2022/04/24 05:10:11;;;;;;;43.97;33.60;;;;;;;15.77;53.70;93562.59;4988852;28;20616;-62
2022/04/24 05:12:36;;;;;;;43.10;32.15;;;;;;;15.30;53.75;93569.50;4989881;28;20097;-62
2022/04/24 05:15:06;;;;;;;39.50;31.35;;;;;;;14.33;56.19;93573.19;4990273;28;20041;-61
2022/04/24 05:17:34;;;;;;;39.78;30.52;;;;;;;12.84;60.82;93540.56;4990192;28;20479;-61
2022/04/24 05:19:59;;;;;;;43.05;32.15;;;;;;;12.73;62.52;93566.28;4990116;28;20037;-61
2022/04/24 05:22:25;;;;;;;40.40;30.77;;;;;;;12.66;62.84;93548.28;4989645;28;20038;-61
2022/04/24 05:24:50;;;;;;;41.13;31.20;;;;;;;14.02;59.25;93571.63;4990457;28;20038;-61
2022/04/24 05:27:16;;;;;;;39.00;31.17;;;;;;;14.84;56.91;93580.59;4993632;28;20034;-62
2022/04/24 05:29:42;;;;;;;40.13;31.48;;;;;;;14.71;56.22;93595.38;4993438;28;20034;-61
2022/04/24 05:32:07;;;;;;;41.60;31.45;;;;;;;14.46;56.46;93579.81;4993108;28;20517;-62
2022/04/24 05:34:33;;;;;;;36.60;29.95;;;;;;;13.74;58.60;93564.81;4993160;28;20038;-62
2022/04/24 05:36:58;;;;;;;36.38;28.38;;;;;;;13.04;60.15;93569.84;4992179;28;20030;-62
2022/04/24 05:39:23;;;;;;;35.70;26.33;;;;;;;12.83;62.12;93595.06;4992097;28;20037;-61
2022/04/24 05:41:49;;;;;;;39.80;29.95;;;;;;;13.34;60.55;93585.97;4992938;28;20030;-62
2022/04/24 05:44:14;;;;;;;36.08;26.77;;;;;;;12.96;61.64;93604.44;4991627;28;20446;-61
2022/04/24 05:46:40;;;;;;;34.53;26.52;;;;;;;13.40;60.14;93600.56;4991971;28;20121;-62
2022/04/24 05:49:06;;;;;;;32.85;26.35;;;;;;;14.08;58.53;93612.22;4991923;28;20022;-63
2022/04/24 05:51:33;;;;;;;31.63;24.73;;;;;;;14.43;56.50;93601.16;4992899;28;20018;-62
2022/04/24 05:53:59;;;;;;;29.85;25.20;;;;;;;14.49;56.24;93595.16;4991544;28;20049;-63
2022/04/24 05:56:24;;;;;;;30.25;25.50;;;;;;;14.85;56.61;93626.88;4992839;28;20057;-61
2022/04/24 05:58:50;;;;;;;29.45;25.10;;;;;;;14.19;58.05;93618.47;4993143;28;20061;-61
2022/04/24 06:01:15;;;;;;;31.67;24.17;;;;;;;13.85;58.68;93631.00;4992531;28;20370;-61
2022/04/24 06:03:40;;;;;;;27.08;22.80;;;;;;;14.06;58.49;93625.94;4992766;28;20038;-62
2022/04/24 06:06:07;;;;;;;30.30;23.38;;;;;;;13.67;58.29;93583.44;4992878;28;20153;-62
2022/04/24 06:08:32;;;;;;;25.48;22.75;;;;;;;13.44;60.12;93609.41;4993016;28;20022;-62
2022/04/24 06:10:58;;;;;;;23.88;21.27;;;;;;;14.33;57.44;93610.63;4992559;28;20037;-61
2022/04/24 06:13:23;;;;;;;23.65;21.10;;;;;;;13.74;58.66;93617.50;4991359;28;20502;-62
2022/04/24 06:15:49;;;;;;;22.27;20.08;;;;;;;13.60;59.03;93610.03;4992693;28;20482;-62
2022/04/24 06:18:14;;;;;;;23.70;18.85;;;;;;;13.29;59.90;93648.47;4992935;28;20030;-62
2022/04/24 06:20:40;;;;;;;22.40;20.10;;;;;;;13.67;59.04;93630.75;4991092;28;20052;-62
2022/04/24 06:23:05;;;;;;;25.30;19.45;;;;;;;13.70;59.83;93624.69;4991462;28;20061;-62
2022/04/24 06:25:33;;;;;;;20.27;17.88;;;;;;;12.92;61.19;93619.59;4992551;28;20022;-62
2022/04/24 06:27:59;;;;;;;14.65;13.15;;;;;;;12.69;62.29;93629.47;4992714;28;20026;-61
2022/04/24 06:30:27;;;;;;;17.77;15.15;;;;;;;13.29;60.47;93627.09;4992171;28;20034;-62
2022/04/24 06:32:53;;;;;;;17.67;15.85;;;;;;;13.97;58.42;93633.44;4992141;28;20034;-63
2022/04/24 06:35:19;;;;;;;15.73;14.20;;;;;;;13.62;58.65;93615.81;4992422;28;20104;-63
2022/04/24 06:37:53;;;;;;;15.38;13.88;;;;;;;13.45;59.08;93624.31;4991412;28;20467;-63
2022/04/24 06:40:19;;;;;;;15.00;13.55;;;;;;;14.40;56.64;93604.59;4990516;28;20109;-62
2022/04/24 06:42:50;;;;;;;9.00;8.20;;;;;;;12.99;58.54;93622.41;4992175;28;20386;-62
2022/04/24 06:45:27;;;;;;;9.38;8.20;;;;;;;13.09;57.32;93621.03;4990890;28;20034;-62
2022/04/24 06:47:54;;;;;;;7.50;6.43;;;;;;;14.16;54.88;93645.91;4992297;28;20426;-62
2022/04/24 06:50:22;;;;;;;4.25;3.33;;;;;;;13.19;55.68;93643.69;4991654;28;20102;-62
2022/04/24 06:53:08;;;;;;;2.65;2.45;;;;;;;12.94;56.00;93651.28;4991731;28;20493;-63
2022/04/24 06:55:36;;;;;;;2.80;1.80;;;;;;;12.97;54.96;93651.34;5007253;28;20037;-62
2022/04/24 06:58:02;;;;;;;1.55;1.40;;;;;;;12.45;55.88;93671.34;4990909;28;20034;-61
2022/04/24 07:00:29;;;;;;;1.35;1.17;;;;;;;12.16;56.32;93632.66;4991662;28;20462;-62
2022/04/24 07:02:55;;;;;;;1.55;1.45;;;;;;;12.63;56.11;93661.00;4991630;28;20037;-61
2022/04/24 07:05:22;;;;;;;2.03;1.40;;;;;;;12.75;55.30;93666.22;4992033;28;20028;-62
2022/04/24 07:07:48;;;;;;;1.35;1.10;;;;;;;12.92;54.67;93661.53;4991619;28;20026;-62
2022/04/24 07:10:14;;;;;;;1.13;0.98;;;;;;;12.28;55.65;93634.41;4991403;28;20429;-63
2022/04/24 07:12:53;;;;;;;1.98;1.10;;;;;;;13.21;54.02;93636.13;4991438;28;20038;-62
2022/04/24 07:15:23;;;;;;;1.30;1.20;;;;;;;13.56;53.40;93672.53;4990147;28;20096;-63
2022/04/24 07:17:50;;;;;;;1.42;1.10;;;;;;;13.25;53.94;93667.09;4991491;28;20085;-63
2022/04/24 07:20:17;;;;;;;1.10;1.00;;;;;;;14.06;52.04;93663.38;4991188;28;20030;-63
2022/04/24 07:22:52;;;;;;;1.20;1.10;;;;;;;13.67;52.59;93673.50;4990133;28;20030;-62
2022/04/24 07:25:21;;;;;;;0.68;0.68;;;;;;;12.90;54.40;93667.25;5006124;28;20023;-62
2022/04/24 07:27:48;;;;;;;0.80;0.70;;;;;;;13.60;52.51;93657.34;4991191;28;20030;-63
2022/04/24 07:30:15;;;;;;;0.90;0.90;;;;;;;13.87;51.82;93666.94;4989336;28;20364;-63
2022/04/24 07:32:49;;;;;;;0.98;0.68;;;;;;;12.81;54.58;93676.59;4992727;28;20520;-61
2022/04/24 07:35:35;;;;;;;0.52;0.52;;;;;;;13.89;51.71;93685.28;4989024;28;20046;-62
2022/04/24 07:38:01;;;;;;;0.60;0.60;;;;;;;13.49;52.48;93665.97;4990497;28;20492;-63
2022/04/24 07:40:29;;;;;;;0.80;0.80;;;;;;;13.75;51.99;93688.50;4997527;28;20018;-65
2022/04/24 07:43:00;;;;;;;0.85;0.80;;;;;;;14.65;50.80;93688.59;4986687;28;20035;-62
2022/04/24 07:45:25;;;;;;;0.80;0.60;;;;;;;13.96;51.71;93693.38;4981714;28;20462;-61
2022/04/24 07:47:52;;;;;;;0.60;0.60;;;;;;;13.97;51.23;93695.72;4989595;28;20018;-65
2022/04/24 07:50:21;;;;;;;0.80;0.80;;;;;;;15.27;48.16;93680.84;4985089;28;20065;-64
2022/04/24 07:52:47;;;;;;;0.93;0.93;;;;;;;15.51;46.71;93690.25;4988275;28;20056;-65
2022/04/24 07:55:15;;;;;;;0.40;0.40;;;;;;;14.85;47.42;93691.13;4988806;28;20026;-65
2022/04/24 07:57:40;;;;;;;0.47;0.40;;;;;;;15.67;46.15;93687.34;4988848;28;20483;-63
2022/04/24 08:00:09;;;;;;;0.52;0.50;;;;;;;15.99;46.23;93711.72;4988082;28;20072;-64
2022/04/24 08:02:57;;;;;;;1.65;0.43;;;;;;;16.03;45.12;93692.97;4983395;28;20038;-65
2022/04/24 08:05:24;;;;;;;0.43;0.43;;;;;;;15.12;46.29;93722.03;4980490;28;20089;-65
2022/04/24 08:07:50;;;;;;;0.82;0.50;;;;;;;15.23;46.42;93695.34;4988308;28;20057;-66
2022/04/24 08:10:18;;;;;;;1.05;0.50;;;;;;;14.96;46.89;93719.56;4985033;28;20022;-63
2022/04/24 08:12:44;;;;;;;3.95;0.30;;;;;;;14.77;47.91;93733.88;4988083;28;20510;-65
2022/04/24 08:15:10;;;;;;;1.27;0.43;;;;;;;14.75;48.04;93709.38;4987178;28;20030;-65
2022/04/24 08:17:35;;;;;;;0.40;0.40;;;;;;;16.72;44.18;93744.00;4989801;28;20452;-65
2022/04/24 08:20:02;;;;;;;0.57;0.57;;;;;;;16.56;44.47;93738.91;4987618;28;20550;-65
2022/04/24 08:22:36;;;;;;;0.43;0.43;;;;;;;15.31;45.83;93662.91;4988943;28;20030;-63
2022/04/24 08:25:02;;;;;;;1.05;0.80;;;;;;;15.63;46.77;93715.25;4990325;28;20026;-65
2022/04/24 08:27:27;;;;;;;4.97;0.65;;;;;;;15.84;46.05;93721.56;4990194;28;20110;-70
2022/04/24 08:29:52;;;;;;;1.00;0.52;;;;;;;16.09;45.03;93771.94;4990886;28;20374;-70
2022/04/24 08:32:20;;;;;;;0.50;0.50;;;;;;;16.28;43.81;93714.59;4986454;28;20539;-64
2022/04/24 08:34:46;;;;;;;0.20;0.20;;;;;;;17.25;41.41;93740.75;4989900;28;20372;-65
2022/04/24 08:37:11;;;;;;;1.70;0.30;;;;;;;16.72;44.26;93752.03;4987572;28;20026;-64
2022/04/24 08:39:37;;;;;;;1.55;0.30;;;;;;;15.02;46.60;93749.44;4986758;28;20027;-66
2022/04/24 08:42:05;;;;;;;1.08;0.22;;;;;;;15.73;45.64;93760.16;4986313;28;20031;-66
2022/04/24 08:44:33;;;;;;;0.55;0.50;;;;;;;15.29;46.31;93753.56;4986802;28;20035;-66
2022/04/24 08:46:58;;;;;;;1.98;0.95;;;;;;;15.79;45.32;93732.63;4986837;28;20026;-66
2022/04/24 08:49:25;;;;;;;0.30;0.30;;;;;;;17.19;43.58;93771.03;4990859;28;20092;-65
2022/04/24 08:51:51;;;;;;;0.40;0.40;;;;;;;17.28;42.40;93774.91;4996583;28;20026;-66
2022/04/24 08:54:17;;;;;;;0.30;0.30;;;;;;;16.25;44.47;93785.84;4987191;28;20022;-66
2022/04/24 08:56:43;;;;;;;1.33;0.30;;;;;;;15.69;45.28;93802.25;4989489;28;20026;-66
2022/04/24 08:59:08;;;;;;;0.40;0.30;;;;;;;14.95;46.31;93782.28;4985416;28;20038;-66
2022/04/24 09:01:43;;;;;;;0.20;0.20;;;;;;;16.02;44.78;93793.31;4991324;28;20467;-65
2022/04/24 09:04:09;;;;;;;0.45;0.30;;;;;;;16.75;42.83;93798.88;4991357;28;20029;-66
2022/04/24 09:06:34;;;;;;;0.32;0.32;;;;;;;17.10;42.31;93790.22;4991437;28;20026;-65
2022/04/24 09:09:06;;;;;;;0.47;0.20;;;;;;;16.57;43.49;93807.53;4992679;28;20113;-66
2022/04/24 09:11:32;;;;;;;0.20;0.20;;;;;;;16.20;43.27;93802.31;4994185;28;20026;-65
2022/04/24 09:14:17;;;;;;;2.00;0.20;;;;;;;15.37;45.59;93757.09;4992424;28;20435;-65
2022/04/24 09:16:47;;;;;;;0.35;0.35;;;;;;;16.48;43.23;93799.06;4992397;28;20081;-63
2022/04/24 09:19:23;;;;;;;0.32;0.20;;;;;;;15.94;43.41;93771.06;4991072;28;20054;-65
2022/04/24 09:21:50;;;;;;;0.93;0.38;;;;;;;16.72;42.38;93797.69;4990517;28;20034;-67
2022/04/24 09:24:16;;;;;;;1.00;0.40;;;;;;;17.93;39.68;93786.63;4994188;28;20022;-63
2022/04/24 09:26:56;;;;;;;0.20;0.20;;;;;;;16.33;42.86;93792.06;4991544;28;20041;-63
2022/04/24 09:29:23;;;;;;;0.95;0.30;;;;;;;16.56;42.14;93791.81;4990892;28;20379;-65
2022/04/24 09:31:50;;;;;;;0.35;0.32;;;;;;;17.02;40.61;93734.91;4992430;28;20352;-63
2022/04/24 09:34:17;;;;;;;0.65;0.30;;;;;;;16.95;40.64;93789.38;4991796;28;20041;-64
2022/04/24 09:36:46;;;;;;;0.38;0.30;;;;;;;16.46;41.46;93805.94;4992219;28;20027;-65
2022/04/24 09:39:12;;;;;;;0.40;0.20;;;;;;;15.91;42.58;93793.25;4989613;28;20061;-65
2022/04/24 09:41:39;;;;;;;0.20;0.10;;;;;;;16.19;41.69;93813.41;4991099;28;20553;-66
2022/04/24 09:44:15;;;;;;;1.08;0.20;;;;;;;16.11;41.43;93805.28;4990427;28;20030;-66
2022/04/24 09:46:41;;;;;;;0.30;0.20;;;;;;;17.47;39.01;93773.06;4989837;28;20041;-67
2022/04/24 09:49:09;;;;;;;1.30;0.30;;;;;;;17.77;37.74;93760.09;5005425;28;20026;-65
2022/04/24 09:51:42;;;;;;;0.20;0.20;;;;;;;17.66;37.94;93791.53;4990244;28;20113;-64
2022/04/24 09:54:08;;;;;;;0.32;0.30;;;;;;;16.07;40.75;93817.94;4987457;28;20058;-65
2022/04/24 09:56:35;;;;;;;0.30;0.20;;;;;;;15.65;41.87;93818.28;4974140;28;20595;-65
2022/04/24 09:59:01;;;;;;;1.25;0.20;;;;;;;16.84;39.71;93793.94;4988238;28;20080;-64
2022/04/24 10:01:27;;;;;;;0.22;0.10;;;;;;;17.47;39.10;93778.44;4991651;28;20038;-65
2022/04/24 10:03:53;;;;;;;0.30;0.20;;;;;;;17.54;38.72;93771.16;4990048;28;20394;-66
2022/04/24 10:06:22;;;;;;;0.55;0.22;;;;;;;17.40;39.12;93792.59;4992468;28;20703;-66
2022/04/24 10:08:49;;;;;;;0.52;0.30;;;;;;;17.89;38.41;93813.50;4989148;28;20026;-67
2022/04/24 10:11:15;;;;;;;0.30;0.30;;;;;;;17.17;38.83;93767.97;4976594;28;20165;-66
2022/04/24 10:13:44;;;;;;;0.30;0.25;;;;;;;16.77;39.59;93810.00;4992498;28;20227;-66
2022/04/24 10:16:30;;;;;;;0.28;0.28;;;;;;;17.06;39.65;93808.25;4989615;28;20026;-69
2022/04/24 10:19:14;;;;;;;0.17;0.17;;;;;;;16.96;40.17;93808.94;4990730;28;20034;-66
2022/04/24 10:22:04;;;;;;;0.20;0.20;;;;;;;16.95;39.53;93815.47;4995517;28;20083;-65
2022/04/24 10:24:43;;;;;;;0.38;0.30;;;;;;;16.08;41.29;93792.63;4992587;28;20030;-66
2022/04/24 10:27:11;;;;;;;0.17;0.13;;;;;;;16.57;40.25;93801.41;4991478;28;20492;-65
2022/04/24 10:29:47;;;;;;;0.38;0.38;;;;;;;16.46;40.08;93795.97;4984924;28;20054;-65
2022/04/24 10:32:24;;;;;;;0.50;0.25;;;;;;;17.55;38.73;93810.31;4991169;28;20030;-65
2022/04/24 10:34:50;;;;;;;0.20;0.20;;;;;;;15.88;41.24;93795.91;4991192;28;20109;-66
2022/04/24 10:37:28;;;;;;;0.30;0.28;;;;;;;16.85;39.32;93817.72;4991531;28;20105;-65
2022/04/24 10:39:58;;;;;;;0.45;0.20;;;;;;;16.01;41.47;93784.50;4983889;28;20057;-65
2022/04/24 10:42:33;;;;;;;0.45;0.20;;;;;;;15.78;41.11;93822.25;4990871;28;20023;-66
2022/04/24 10:45:09;;;;;;;1.02;0.30;;;;;;;15.16;43.10;93815.81;4991102;28;20109;-65
2022/04/24 10:47:49;;;;;;;0.38;0.30;;;;;;;15.47;41.90;93820.75;4992127;28;20101;-65
2022/04/24 10:50:19;;;;;;;0.15;0.15;;;;;;;14.51;43.16;93790.09;4990390;28;20040;-66
2022/04/24 10:52:47;;;;;;;0.88;0.38;;;;;;;15.22;41.85;93804.41;5003465;28;20044;-65
2022/04/24 10:55:18;;;;;;;0.85;0.20;;;;;;;15.54;41.55;93809.34;4994157;28;20029;-65
2022/04/24 10:57:45;;;;;;;;;;;;;;;16.52;39.78;93821.31;4991692;28;20453;-65
2022/04/24 11:00:22;;;;;;;0.40;0.10;;;;;;;16.14;39.72;93800.34;4989412;28;19917;-66
2022/04/24 11:02:49;;;;;;;0.20;0.20;;;;;;;14.76;41.84;93774.38;4990818;28;20036;-66
2022/04/24 11:05:20;;;;;;;0.20;0.20;;;;;;;14.22;43.17;93783.53;4990134;28;20034;-65
2022/04/24 11:07:46;;;;;;;0.53;0.20;;;;;;;14.93;42.83;93819.34;5002147;28;20041;-65
2022/04/24 11:10:13;;;;;;;0.22;0.10;;;;;;;14.38;43.12;93810.91;4997606;28;20647;-64
2022/04/24 11:12:40;;;;;;;0.32;0.20;;;;;;;15.49;41.45;93828.41;4990544;28;20038;-65
2022/04/24 11:15:06;;;;;;;0.10;0.10;;;;;;;14.40;43.92;93840.75;4987374;28;20421;-64
2022/04/24 11:17:33;;;;;;;0.20;0.17;;;;;;;14.63;42.66;93803.25;4991635;28;20023;-64
2022/04/24 11:20:00;;;;;;;0.85;0.20;;;;;;;15.30;41.98;93854.25;4990560;28;20041;-64
2022/04/24 11:22:26;;;;;;;0.65;0.20;;;;;;;14.91;42.42;93824.28;4995431;28;20034;-65
2022/04/24 11:24:55;;;;;;;0.20;0.20;;;;;;;15.71;41.36;93859.69;4992931;28;20030;-65